Flight Track Log - Related Links

Times and Time Zones

All times are in EDT time to prevent confusion due to time zone crossing. See the N683FE flight status page for this flight to view local times or setup timezone preferences in your user account.

Time Position Orientation Groundspeed Altitude Reporting Facility
EDT Latitude Longitude Course Direction KTS MPH feet Rate Location/Type
Sun 07:23:38 AM 51.1340 -114.0220 129° Southeast 6,200  Level FlightAware ADS-B
Sun 07:24:08 AM 51.1620 -114.0200 North 7,800 719 Climbing FlightAware ADS-B
Sun 07:24:23 AM 51.1770 -114.0140 14° North 8,400 671 Climbing FlightAware ADS-B
Sun 07:24:33 AM 51.1880 -114.0010 37° Northeast 8,900 655 Climbing FlightAware ADS-B
Sun 07:24:48 AM 51.1990 -113.9730 58° Northeast 9,800 640 Climbing FlightAware ADS-B
Sun 07:26:13 AM 51.1370 -113.8100 121° Southeast 14,600 611 Climbing FlightAware ADS-B
Sun 07:26:53 AM 51.0740 -113.7680 157° South 17,500 448 Climbing FlightAware ADS-B
Sun 07:28:33 AM 50.8900 -113.6350 155° Southeast 23,800 337 Climbing FlightAware ADS-B
Sun 07:29:13 AM 50.8120 -113.5790 156° South 25,500 73 Climbing FlightAware ADS-B
Sun 07:29:58 AM 50.7260 -113.5170 155° Southeast 28,100 -5 Climbing FlightAware ADS-B
Sun 07:30:53 AM 50.6260 -113.4480 156° South 30,800 -132 Climbing FlightAware ADS-B
Sun 07:31:48 AM 50.5250 -113.3770 156° South 31,000 -277 Climbing FlightAware ADS-B
Sun 07:33:08 AM 50.3700 -113.2710 156° South 31,000 -302 Level FlightAware ADS-B
Sun 07:33:53 AM 50.2790 -113.2090 156° South 31,000 -325 Level FlightAware ADS-B
Sun 07:34:38 AM 50.1940 -113.1510 156° South 31,000 -340 Level FlightAware ADS-B
Sun 07:35:18 AM 50.1180 -113.1000 157° South 31,000 -356 Level FlightAware ADS-B
Sun 07:36:03 AM 50.0310 -113.0410 156° South 31,000 -372 Level FlightAware ADS-B
Sun 07:36:43 AM 49.9570 -112.9900 156° South 31,000 -392 Level FlightAware ADS-B
Sun 07:37:18 AM 49.8920 -112.9460 156° South 31,000 -411 Level FlightAware ADS-B
Sun 07:38:03 AM 49.8130 -112.8940 157° South 31,000 -429 Level FlightAware ADS-B
Sun 07:38:48 AM 49.7200 -112.8320 157° South 31,000 -455 Level FlightAware ADS-B
Sun 07:39:28 AM 49.6450 -112.7820 157° South 31,000 -485 Level FlightAware ADS-B
Sun 07:40:13 AM 49.5620 -112.7270 157° South 31,000 -515 Level FlightAware ADS-B
Sun 07:40:53 AM 49.4860 -112.6760 156° South 31,000 -553 Level FlightAware ADS-B
Sun 07:41:38 AM 49.4050 -112.6140 154° Southeast 31,000 -592 Level FlightAware ADS-B
Sun 07:42:18 AM 49.3350 -112.5500 149° Southeast 31,000 -642 Level FlightAware ADS-B
Sun 07:43:03 AM 49.2540 -112.4750 149° Southeast 31,000 -696 Level FlightAware ADS-B
Sun 07:43:43 AM 49.1850 -112.4120 149° Southeast 31,000 -767 Level FlightAware ADS-B
Sun 07:44:23 AM 49.1150 -112.3480 149° Southeast 31,000 -844 Level FlightAware ADS-B
Sun 07:45:08 AM 49.0330 -112.2740 149° Southeast 31,000 -939 Level FlightAware ADS-B
Sun 07:45:48 AM 48.9630 -112.2100 149° Southeast 31,000 -1,073 Level FlightAware ADS-B
Sun 07:47:13 AM 48.8090 -112.0730 150° Southeast 30,900 -1,231 Descending FlightAware ADS-B
Sun 07:49:28 AM 48.5800 -111.8690 149° Southeast 27,100 -1,755 Descending FlightAware ADS-B
Sun 07:50:21 AM 48.5031 -111.8008 149° Southeast 417 480 25,400 -2,071 Descending Salt Lake Center
Sun 07:51:21 AM 48.4083 -111.7169 150° Southeast 402 463 23,200 -2,100 Descending Salt Lake Center
Sun 07:52:21 AM 48.3169 -111.6378 150° Southeast 388 447 21,200 -2,083 Descending Salt Lake Center
Sun 07:53:22 AM 48.2275 -111.5583 149° Southeast 378 435 19,000 -2,083 Descending Salt Lake Center
Sun 07:54:22 AM 48.1389 -111.4831 150° Southeast 371 427 17,000 -2,050 Descending Salt Lake Center
Sun 07:55:22 AM 48.0533 -111.4089 150° Southeast 360 414 14,900 -1,550 Descending Salt Lake Center
Sun 07:56:22 AM 47.9686 -111.3358 150° Southeast 357 411 13,900 -1,250 Descending Salt Lake Center
Sun 07:57:22 AM 47.8858 -111.2656 150° Southeast 351 404 12,400 -1,750 Descending Salt Lake Center
Sun 07:58:22 AM 47.8106 -111.2006 150° Southeast 333 383 10,400 -1,488 Descending Salt Lake Center
Sun 07:59:23 AM 47.7375 -111.1372 150° Southeast 316 364 9,400 -893 Descending Salt Lake Center
Sun 08:00:23 AM 47.6722 -111.0972 158° South 279 321 8,600 -1,050 Descending Salt Lake Center
Sun 08:01:23 AM 47.6258 -111.1536 219° Southwest 237 273 7,300 -1,150 Descending Salt Lake Center
Sun 08:02:23 AM 47.5858 -111.2119 225° Southwest 214 246 6,300 -950 Descending Salt Lake Center
Sun 08:03:23 AM 47.5528 -111.2617 225° Southwest 190 219 5,400 -750 Descending Salt Lake Center
Sun 08:04:23 AM 47.5300 -111.2942 224° Southwest 144 166 4,800 -595 Descending Salt Lake Center
Sun 08:05:24 AM 47.5086 -111.3258 225° Southwest 122 140 4,200 -595 Descending Salt Lake Center
Sun 08:06:24 AM 47.4875 -111.3572 225° Southwest 113 130 3,600 -600 Descending Salt Lake Center
Sun 08:08:00 AM 47.4827 -111.3706 222° Southwest  Level Estimated

Login

Don't have an account? Register now (free) for customized features, flight alerts, and more!